Aviation Digital Data Service (ADDS)

Output produced by METARs form (0427 UTC 26 May 2018)
found at http://www.aviationweather.gov/adds/metars/
 
MRLB 252300Z 2600/2624 09007KT 9999 SCT020 TX32/2619Z TN22/2610Z 
     TEMPO 2600/2604 5000 RA BKN020 
     BECMG 2615/2618 27007KT 
     TEMPO 2621/2624 5000 TSRA FEW020CB
       
TAF COR MROC 252300Z 2600/2624 27005KT 9999 SCT005 TX29/2618Z TN19/2610Z 
     TEMPO 2600/2604 RA BCFG FEW002 BKN020 
     BECMG 2605/2608 06006KT 
     BECMG 2612/2615 25006KT 
     TEMPO 2620/2624 5000 TSRA FEW020CB BKN030
       
MRLM 252300Z 2600/2624 06005KT 9999 SCT015 TX31/2619Z TN22/2611Z 
     TEMPO 2600/2604 RA BKN020 
     BECMG 2602/2605 26005KT 
     BECMG 2615/2618 05005KT
       
MRPV 252300Z 2600/2624 29009KT 9999 SCT030 SCT200 TX27/2616Z TN18/2610Z 
     TEMPO 260/2606 30005KT 5000 RA BR BKN010 
     BECMG 2607/2609 11005KT 
     BECMG 2515/1517 29005KT 
     BECMG 2618/2620 3000 TSRA SCT010CB 
     FM262200 28004KT 5000 RA BR BKN015